Time;durP1;ratioP1;P1;durP2;ratioP2;P2;SDS_P1;SDS_P2;PMS_P1;PMS_P2;Temp;Humidity;BMP_temperature;BMP_pressure;BME280_temperature;BME280_humidity;BME280_pressure;Samples;Min_cycle;Max_cycle;Signal;HPM_P1;HPM_P2
2022/04/10 00:00:09;;;;;;;9.10;2.03;;;4.60;97.80;;;;;;6071734;23;88408;-70
2022/04/10 00:02:40;;;;;;;11.10;2.30;;;4.60;97.90;;;;;;6072151;23;90922;-70
2022/04/10 00:05:08;;;;;;;9.38;2.33;;;4.60;97.90;;;;;;6071628;23;89375;-70
2022/04/10 00:07:35;;;;;;;12.13;2.60;;;4.50;98.00;;;;;;6098261;23;89349;-70
2022/04/10 00:10:03;;;;;;;10.13;2.42;;;4.50;98.00;;;;;;6071922;23;94694;-70
2022/04/10 00:12:33;;;;;;;7.70;2.22;;;4.50;98.20;;;;;;6072083;23;93426;-70
2022/04/10 00:15:01;;;;;;;7.28;2.22;;;4.50;98.10;;;;;;6097967;23;87987;-70
2022/04/10 00:17:28;;;;;;;11.10;2.45;;;4.50;98.00;;;;;;6042546;23;90979;-70
2022/04/10 00:19:55;;;;;;;11.82;2.50;;;4.40;98.00;;;;;;6068824;23;87899;-70
2022/04/10 00:22:22;;;;;;;10.27;2.33;;;4.40;98.00;;;;;;6068521;23;99233;-70
2022/04/10 00:24:49;;;;;;;11.55;2.65;;;4.40;98.10;;;;;;6066979;23;91196;-70
2022/04/10 00:27:16;;;;;;;11.27;2.28;;;4.40;98.10;;;;;;6068464;23;88608;-70
2022/04/10 00:29:43;;;;;;;10.00;2.28;;;4.40;98.20;;;;;;6066474;23;88758;-70
2022/04/10 00:32:10;;;;;;;14.60;2.92;;;4.40;98.10;;;;;;6066593;23;91088;-70
2022/04/10 00:34:38;;;;;;;12.00;2.45;;;4.30;98.10;;;;;;6067167;23;88816;-70
2022/04/10 00:37:06;;;;;;;9.05;2.92;;;4.30;98.10;;;;;;6066582;23;91339;-70
2022/04/10 00:39:33;;;;;;;7.57;2.00;;;4.30;98.10;;;;;;6066762;23;88968;-70
2022/04/10 00:42:00;;;;;;;11.30;2.55;;;4.30;98.10;;;;;;6068558;23;88441;-71
2022/04/10 00:44:27;;;;;;;15.55;2.80;;;4.30;98.20;;;;;;6068113;23;90920;-70
2022/04/10 00:46:54;;;;;;;10.32;2.03;;;4.30;98.20;;;;;;6068491;23;89644;-70
2022/04/10 00:49:21;;;;;;;12.38;3.47;;;4.20;98.20;;;;;;6067726;23;89349;-70
2022/04/10 00:51:52;;;;;;;10.90;2.55;;;4.20;98.30;;;;;;6069884;23;88244;-70
2022/04/10 00:54:26;;;;;;;10.05;2.55;;;4.30;98.30;;;;;;6067605;23;92098;-70
2022/04/10 00:56:55;;;;;;;;;;;4.30;98.20;;;;;;6070368;23;88521;-70
2022/04/10 00:59:22;;;;;;;8.35;2.10;;;4.20;98.30;;;;;;6070878;23;87995;-70
2022/04/10 01:01:49;;;;;;;14.48;2.83;;;4.20;98.30;;;;;;6069328;23;93076;-70
2022/04/10 01:04:36;;;;;;;12.80;2.40;;;4.20;98.30;;;;;;6068028;23;90433;-70
2022/04/10 01:07:05;;;;;;;15.13;3.13;;;4.20;98.20;;;;;;6067683;23;96807;-70
2022/04/10 01:09:36;;;;;;;15.00;3.08;;;4.20;98.50;;;;;;6067900;23;88756;-70
2022/04/10 01:12:04;;;;;;;12.80;2.58;;;4.20;98.00;;;;;;6068353;23;90949;-70
2022/04/10 01:14:31;;;;;;;13.50;3.35;;;4.20;98.00;;;;;;6067649;23;92335;-70
2022/04/10 01:16:59;;;;;;;10.98;3.00;;;4.20;98.10;;;;;;6067678;23;90781;-70
2022/04/10 01:19:28;;;;;;;11.48;3.38;;;4.20;98.10;;;;;;6067265;23;88740;-70
2022/04/10 01:22:03;;;;;;;12.95;2.42;;;4.20;98.00;;;;;;6068032;23;91061;-70
2022/04/10 01:24:40;;;;;;;8.27;1.80;;;4.20;98.10;;;;;;6067808;23;90958;-70
2022/04/10 01:27:11;;;;;;;10.85;2.58;;;4.20;98.00;;;;;;6067840;23;90864;-70
2022/04/10 01:29:38;;;;;;;18.48;2.80;;;4.20;98.00;;;;;;6067956;23;89157;-70
2022/04/10 01:32:06;;;;;;;13.90;2.42;;;4.20;98.10;;;;;;6067921;23;90684;-70
2022/04/10 01:34:33;;;;;;;9.70;2.45;;;4.20;98.00;;;;;;6040587;23;95806;-70
2022/04/10 01:37:02;;;;;;;15.73;2.95;;;4.10;98.00;;;;;;6041436;23;95481;-70
2022/04/10 01:39:29;;;;;;;7.68;2.38;;;4.10;98.10;;;;;;6064863;23;92385;-70
2022/04/10 01:41:56;;;;;;;12.27;2.70;;;4.10;98.10;;;;;;6065219;23;92446;-70
2022/04/10 01:44:24;;;;;;;9.00;2.58;;;4.10;98.10;;;;;;6038974;23;96874;-70
2022/04/10 01:46:51;;;;;;;12.95;2.75;;;4.00;98.10;;;;;;6040980;23;97961;-70
2022/04/10 01:49:18;;;;;;;10.23;2.78;;;4.00;98.10;;;;;;6064908;23;92532;-70
2022/04/10 01:51:45;;;;;;;10.68;2.55;;;4.00;98.10;;;;;;6065310;23;92404;-70
2022/04/10 01:54:12;;;;;;;11.13;2.38;;;4.00;98.10;;;;;;6064542;23;95700;-70
2022/04/10 01:56:39;;;;;;;11.48;2.28;;;4.00;98.10;;;;;;6065187;23;92946;-70
2022/04/10 01:59:06;;;;;;;16.70;3.28;;;4.00;98.00;;;;;;6065065;23;92324;-70
2022/04/10 02:01:34;;;;;;;10.45;2.17;;;4.00;98.00;;;;;;6065168;23;91734;-70
2022/04/10 02:04:01;;;;;;;6.03;2.10;;;3.90;97.90;;;;;;6064932;23;95522;-70
2022/04/10 02:06:29;;;;;;;9.35;2.83;;;3.90;97.90;;;;;;6064486;23;94316;-70
2022/04/10 02:08:56;;;;;;;8.95;2.38;;;3.90;98.10;;;;;;6065461;23;94707;-70
2022/04/10 02:11:23;;;;;;;10.13;3.13;;;3.90;98.00;;;;;;6040697;23;92338;-70
2022/04/10 02:13:55;;;;;;;7.65;2.20;;;3.90;98.00;;;;;;6064674;23;95352;-70
2022/04/10 02:16:23;;;;;;;9.93;2.67;;;3.90;98.10;;;;;;6064261;23;95723;-70
2022/04/10 02:18:50;;;;;;;9.38;2.60;;;3.90;98.10;;;;;;6065266;23;92760;-70
2022/04/10 02:21:17;;;;;;;10.13;2.95;;;3.90;98.00;;;;;;6064527;23;92486;-70
2022/04/10 02:23:45;;;;;;;12.15;2.85;;;3.80;98.10;;;;;;6040999;23;95751;-70
2022/04/10 02:26:12;;;;;;;5.07;1.85;;;3.80;98.00;;;;;;6065342;23;94011;-70
2022/04/10 02:28:41;;;;;;;12.13;2.33;;;3.80;98.10;;;;;;6040745;23;92389;-70
2022/04/10 02:31:08;;;;;;;10.32;3.72;;;3.80;98.20;;;;;;6064871;23;92556;-70
2022/04/10 02:33:37;;;;;;;10.02;2.22;;;3.80;98.20;;;;;;6063080;23;95651;-70
2022/04/10 02:36:05;;;;;;;10.63;2.45;;;3.70;98.10;;;;;;6064705;23;97731;-70
2022/04/10 02:38:34;;;;;;;12.63;3.10;;;3.80;98.10;;;;;;6040726;23;92614;-70
2022/04/10 02:41:01;;;;;;;11.15;2.95;;;3.80;98.40;;;;;;6064918;23;92483;-70
2022/04/10 02:43:29;;;;;;;9.05;2.30;;;3.80;98.10;;;;;;6064617;23;92934;-70
2022/04/10 02:46:01;;;;;;;11.63;2.42;;;3.80;98.00;;;;;;6064803;23;95689;-70
2022/04/10 02:48:28;;;;;;;13.80;2.50;;;3.70;98.10;;;;;;6064669;23;92442;-70
2022/04/10 02:50:58;;;;;;;14.55;2.70;;;3.80;98.10;;;;;;6041859;23;91743;-70
2022/04/10 02:53:25;;;;;;;12.13;2.58;;;3.70;98.20;;;;;;6040488;23;95822;-70
2022/04/10 02:55:53;;;;;;;12.98;2.55;;;3.70;98.10;;;;;;6064668;23;95194;-70
2022/04/10 02:58:20;;;;;;;12.15;2.10;;;3.70;98.10;;;;;;6063231;23;94794;-70
2022/04/10 03:00:48;;;;;;;12.13;2.55;;;3.70;98.20;;;;;;6066315;23;92450;-70
2022/04/10 03:03:15;;;;;;;11.20;2.60;;;3.70;98.20;;;;;;6040463;23;95699;-70
2022/04/10 03:05:42;;;;;;;11.93;2.20;;;3.70;98.20;;;;;;6063706;23;95353;-70
2022/04/10 03:08:10;;;;;;;6.60;2.58;;;3.70;98.10;;;;;;6064842;23;92416;-70
2022/04/10 03:10:37;;;;;;;11.98;2.40;;;3.70;98.10;;;;;;6066260;23;92482;-70
2022/04/10 03:13:04;;;;;;;9.95;2.40;;;3.70;98.10;;;;;;6040495;23;95691;-70
2022/04/10 03:15:31;;;;;;;13.35;2.30;;;3.70;98.00;;;;;;6066315;23;95333;-70
2022/04/10 03:17:58;;;;;;;11.95;3.35;;;3.70;98.00;;;;;;6069879;23;93018;-70
2022/04/10 03:20:26;;;;;;;9.38;2.28;;;3.60;98.10;;;;;;6069089;23;92460;-70
2022/04/10 03:22:53;;;;;;;10.38;2.35;;;3.60;98.10;;;;;;6067759;23;97914;-70
2022/04/10 03:25:20;;;;;;;14.15;2.95;;;3.60;98.10;;;;;;6045754;23;95641;-70
2022/04/10 03:27:47;;;;;;;14.55;3.10;;;3.60;98.20;;;;;;6045350;23;92335;-70
2022/04/10 03:30:15;;;;;;;8.88;2.30;;;3.60;98.20;;;;;;6045518;23;92395;-70
2022/04/10 03:32:42;;;;;;;6.47;1.85;;;3.60;98.40;;;;;;6095296;23;93081;-70
2022/04/10 03:35:11;;;;;;;12.13;2.60;;;3.60;98.50;;;;;;6069252;23;93921;-70
2022/04/10 03:37:38;;;;;;;6.40;2.30;;;3.70;98.50;;;;;;6069234;23;92452;-70
2022/04/10 03:40:05;;;;;;;8.30;3.13;;;3.70;98.50;;;;;;6070101;23;91710;-70
2022/04/10 03:42:42;;;;;;;8.07;2.17;;;3.80;98.60;;;;;;6069067;23;95636;-70
2022/04/10 03:45:11;;;;;;;9.15;1.88;;;4.00;98.50;;;;;;6069187;23;94747;-70
2022/04/10 03:47:38;;;;;;;6.35;1.95;;;4.10;98.20;;;;;;6043889;23;94880;-70
2022/04/10 03:50:06;;;;;;;10.43;2.10;;;4.20;98.10;;;;;;6069704;23;92404;-70
2022/04/10 03:52:34;;;;;;;7.43;2.15;;;4.20;98.10;;;;;;6068828;23;94996;-70
2022/04/10 03:55:01;;;;;;;9.80;2.45;;;4.30;97.70;;;;;;6069079;23;94897;-70
2022/04/10 03:57:28;;;;;;;8.65;2.10;;;4.30;97.70;;;;;;6069608;23;92335;-70
2022/04/10 03:59:58;;;;;;;10.07;2.63;;;4.40;97.60;;;;;;6069285;23;92478;-70
2022/04/10 04:02:26;;;;;;;10.63;2.53;;;4.40;97.30;;;;;;6068995;23;95636;-70
2022/04/10 04:04:53;;;;;;;10.65;2.28;;;4.40;97.30;;;;;;6045288;23;95456;-70
2022/04/10 04:07:21;;;;;;;5.82;1.67;;;4.40;97.30;;;;;;6045539;23;92694;-70
2022/04/10 04:09:49;;;;;;;7.78;2.33;;;4.40;97.30;;;;;;6068930;23;92875;-70
2022/04/10 04:12:17;;;;;;;6.32;2.00;;;4.40;97.40;;;;;;6067487;23;97925;-70
2022/04/10 04:14:44;;;;;;;7.05;2.80;;;4.40;97.40;;;;;;6044629;23;97466;-70
2022/04/10 04:17:12;;;;;;;13.55;2.08;;;4.50;97.30;;;;;;6068833;23;92972;-70
2022/04/10 04:19:39;;;;;;;5.40;1.77;;;4.50;97.20;;;;;;6068834;23;92461;-70
2022/04/10 04:22:06;;;;;;;7.78;1.90;;;4.60;97.10;;;;;;6068924;23;95313;-70
2022/04/10 04:24:36;;;;;;;5.88;1.65;;;4.60;97.10;;;;;;6069039;23;95200;-70
2022/04/10 04:27:04;;;;;;;10.32;2.20;;;4.60;97.20;;;;;;6045347;23;93057;-70
2022/04/10 04:29:31;;;;;;;7.82;1.77;;;4.60;97.20;;;;;;6069580;23;91743;-70
2022/04/10 04:31:58;;;;;;;8.52;2.13;;;4.60;97.20;;;;;;6044500;23;95376;-70
2022/04/10 04:34:25;;;;;;;5.65;2.22;;;4.60;97.10;;;;;;6068925;23;95301;-70
2022/04/10 04:36:53;;;;;;;6.45;1.75;;;4.60;97.00;;;;;;6067465;23;94863;-70
2022/04/10 04:39:21;;;;;;;4.13;1.52;;;4.70;97.00;;;;;;6045115;23;92536;-70
2022/04/10 04:41:49;;;;;;;6.57;2.20;;;4.60;97.00;;;;;;6068528;23;95724;-70
2022/04/10 04:44:16;;;;;;;7.13;1.52;;;4.60;97.00;;;;;;6068915;23;95402;-70
2022/04/10 04:46:45;;;;;;;6.03;1.63;;;4.60;97.20;;;;;;6044890;23;92506;-70
2022/04/10 04:49:12;;;;;;;7.85;1.75;;;4.60;97.40;;;;;;6044922;23;92818;-70
2022/04/10 04:51:39;;;;;;;7.55;1.80;;;4.50;97.40;;;;;;6044383;23;94394;-70
2022/04/10 04:54:10;;;;;;;5.70;1.67;;;4.50;97.40;;;;;;6069127;23;95342;-70
2022/04/10 04:56:39;;;;;;;6.25;1.50;;;4.60;97.50;;;;;;6068616;23;92799;-70
2022/04/10 04:59:07;;;;;;;5.35;1.70;;;4.60;97.50;;;;;;6068844;23;92508;-70
2022/04/10 05:01:35;;;;;;;4.00;1.42;;;4.60;97.50;;;;;;6067100;23;97779;-70
2022/04/10 05:04:02;;;;;;;5.22;1.52;;;4.60;97.50;;;;;;6068264;23;96841;-70
2022/04/10 05:06:29;;;;;;;7.38;1.65;;;4.60;97.60;;;;;;6044380;23;92398;-70
2022/04/10 05:08:58;;;;;;;2.08;1.17;;;4.50;97.60;;;;;;6068584;23;92848;-70
2022/04/10 05:11:25;;;;;;;3.90;1.60;;;4.50;97.70;;;;;;6068594;23;96051;-70
2022/04/10 05:13:53;;;;;;;2.20;1.30;;;4.50;97.80;;;;;;6044224;23;95347;-70
2022/04/10 05:16:21;;;;;;;5.38;1.40;;;4.50;97.80;;;;;;6068548;23;92802;-70
2022/04/10 05:18:50;;;;;;;3.28;1.30;;;4.50;97.80;;;;;;6068656;23;91778;-70
2022/04/10 05:21:21;;;;;;;3.38;1.55;;;4.50;97.70;;;;;;6069057;23;95606;-70
2022/04/10 05:23:48;;;;;;;2.65;1.40;;;4.50;97.80;;;;;;6043842;23;94458;-70
2022/04/10 05:26:19;;;;;;;5.10;2.05;;;4.60;97.70;;;;;;6043806;23;94825;-70
2022/04/10 05:28:51;;;;;;;3.10;1.38;;;4.60;97.70;;;;;;6068543;23;92397;-70
2022/04/10 05:31:24;;;;;;;2.90;1.38;;;4.60;97.80;;;;;;6070147;23;95473;-70
2022/04/10 05:33:51;;;;;;;3.08;1.40;;;4.70;97.80;;;;;;6069613;23;95512;-70
2022/04/10 05:36:20;;;;;;;4.22;1.30;;;4.70;97.90;;;;;;6069991;23;92395;-70
2022/04/10 05:38:49;;;;;;;7.40;1.95;;;4.80;97.90;;;;;;6046055;23;92497;-70
2022/04/10 05:41:18;;;;;;;4.97;1.58;;;5.00;98.00;;;;;;6069783;23;95759;-70
2022/04/10 05:43:49;;;;;;;2.30;1.38;;;5.40;97.80;;;;;;6046911;23;95338;-70
2022/04/10 05:46:18;;;;;;;5.20;1.75;;;5.70;97.30;;;;;;6069939;23;92419;-71
2022/04/10 05:48:50;;;;;;;5.40;2.17;;;5.90;97.00;;;;;;6070169;23;92805;-71
2022/04/10 05:51:18;;;;;;;7.35;1.80;;;6.10;96.70;;;;;;6044149;23;97910;-70
2022/04/10 05:53:45;;;;;;;3.85;1.50;;;6.40;96.50;;;;;;6069511;23;96280;-71
2022/04/10 05:56:12;;;;;;;3.70;1.55;;;6.70;95.70;;;;;;6070326;23;92760;-71
2022/04/10 05:58:44;;;;;;;3.13;1.40;;;7.00;94.90;;;;;;6070245;23;92379;-70
2022/04/10 06:01:11;;;;;;;4.82;1.40;;;7.20;94.90;;;;;;6045348;23;95627;-70
2022/04/10 06:03:39;;;;;;;4.55;1.70;;;7.30;94.70;;;;;;6069649;23;95407;-70
2022/04/10 06:06:10;;;;;;;8.32;1.35;;;7.50;94.50;;;;;;6070091;23;92871;-70
2022/04/10 06:08:47;;;;;;;3.58;1.27;;;7.60;94.20;;;;;;6048464;23;91709;-70
2022/04/10 06:11:14;;;;;;;6.47;1.55;;;7.70;94.00;;;;;;6045606;23;95654;-71
2022/04/10 06:13:42;;;;;;;4.78;1.38;;;7.80;93.80;;;;;;6069880;23;95384;-71
2022/04/10 06:16:13;;;;;;;5.50;1.38;;;7.80;93.80;;;;;;6068371;23;95421;-71
2022/04/10 06:18:44;;;;;;;7.03;1.70;;;8.00;93.80;;;;;;6070197;23;92644;-71
2022/04/10 06:21:11;;;;;;;2.55;1.13;;;8.20;93.70;;;;;;6069445;23;95611;-71
2022/04/10 06:23:40;;;;;;;5.50;1.73;;;8.50;93.00;;;;;;6045758;23;94960;-71
2022/04/10 06:26:15;;;;;;;3.00;1.20;;;8.90;92.80;;;;;;6047443;23;92445;-71
2022/04/10 06:28:43;;;;;;;5.30;1.60;;;9.20;92.30;;;;;;6069720;23;92367;-71
2022/04/10 06:31:16;;;;;;;3.13;1.30;;;9.70;92.10;;;;;;6070118;23;96078;-71
2022/04/10 06:33:44;;;;;;;13.90;7.15;;;9.90;91.20;;;;;;6069940;23;95065;-71
2022/04/10 06:36:12;;;;;;;5.53;1.23;;;10.00;91.10;;;;;;6045540;23;92524;-71
2022/04/10 06:38:39;;;;;;;3.90;1.50;;;9.90;90.90;;;;;;6045800;23;92444;-71
2022/04/10 06:41:19;;;;;;;5.97;1.60;;;9.80;91.00;;;;;;6067712;23;96408;-71
2022/04/10 06:43:47;;;;;;;6.95;2.08;;;9.70;91.00;;;;;;6069433;23;97968;-71
2022/04/10 06:46:32;;;;;;;5.30;1.70;;;9.60;91.00;;;;;;6096285;23;92394;-70
2022/04/10 06:49:12;;;;;;;3.75;1.42;;;9.50;91.20;;;;;;6069698;23;92416;-70
2022/04/10 06:51:41;;;;;;;6.57;1.90;;;9.40;91.10;;;;;;6069654;23;95304;-71
2022/04/10 06:54:08;;;;;;;4.72;1.75;;;9.50;91.40;;;;;;6069098;23;95398;-70
2022/04/10 06:56:36;;;;;;;7.45;1.83;;;9.70;91.40;;;;;;6069833;23;92427;-70
2022/04/10 06:59:03;;;;;;;3.95;1.55;;;9.90;90.80;;;;;;6070153;23;91720;-71
2022/04/10 07:01:29;;;;;;;3.40;1.33;;;9.90;90.80;;;;;;6069417;23;95525;-71
2022/04/10 07:04:04;;;;;;;3.03;1.30;;;9.90;90.80;;;;;;6069379;23;95352;-71
2022/04/10 07:06:35;;;;;;;5.55;1.80;;;9.90;90.50;;;;;;6068452;23;94858;-70
2022/04/10 07:09:02;;;;;;;3.97;1.60;;;9.80;90.80;;;;;;6069573;23;92458;-70
2022/04/10 07:11:34;;;;;;;4.82;1.33;;;9.60;90.90;;;;;;6045512;23;95777;-70
2022/04/10 07:14:06;;;;;;;4.38;1.30;;;9.40;91.20;;;;;;6069407;23;95212;-70
2022/04/10 07:16:34;;;;;;;4.40;1.45;;;9.30;91.80;;;;;;6069656;23;92508;-71
2022/04/10 07:19:01;;;;;;;3.22;1.83;;;9.00;91.50;;;;;;6070018;23;92399;-71
2022/04/10 07:24:38;;;;;;;4.60;2.70;;;9.20;92.70;;;;;;6034319;23;95361;-71
2022/04/10 07:27:06;;;;;;;8.23;3.35;;;9.60;92.50;;;;;;5986652;23;92523;-71
2022/04/10 07:29:41;;;;;;;3.75;3.22;;;10.10;92.00;;;;;;6043780;23;92523;-71
2022/04/10 07:32:10;;;;;;;6.07;5.50;;;10.70;91.30;;;;;;6067381;23;98286;-71
2022/04/10 07:34:44;;;;;;;3.40;2.85;;;11.30;90.40;;;;;;6069431;23;97685;-71
2022/04/10 07:37:23;;;;;;;4.32;3.65;;;11.50;86.20;;;;;;6047809;23;92483;-71
2022/04/10 07:39:57;;;;;;;8.95;8.35;;;12.00;87.30;;;;;;6046884;23;92465;-71
2022/04/10 07:42:30;;;;;;;7.57;7.10;;;12.50;85.90;;;;;;6069599;23;95431;-71
2022/04/10 07:45:08;;;;;;;10.38;9.98;;;12.70;83.00;;;;;;6068974;23;95385;-71
2022/04/10 07:47:55;;;;;;;8.88;8.43;;;13.20;82.50;;;;;;6068665;23;92478;-71
2022/04/10 07:50:23;;;;;;;6.25;5.95;;;13.40;79.30;;;;;;6069979;23;92125;-71
2022/04/10 07:52:50;;;;;;;15.32;14.73;;;13.60;77.90;;;;;;6068632;23;95514;-71
2022/04/10 07:55:22;;;;;;;6.03;5.72;;;13.90;76.60;;;;;;6092967;23;95284;-71
2022/04/10 07:57:49;;;;;;;37.63;36.35;;;14.20;74.80;;;;;;6068109;23;94815;-71
2022/04/10 08:00:17;;;;;;;26.33;25.30;;;14.40;74.50;;;;;;6044477;23;92678;-71
2022/04/10 08:03:06;;;;;;;45.78;44.13;;;14.80;73.70;;;;;;6068171;23;96100;-71
2022/04/10 08:05:51;;;;;;;1999.90;999.90;;;15.20;72.10;;;;;;6094796;23;92772;-71
2022/04/10 08:08:38;;;;;;;17.30;16.50;;;15.70;70.80;;;;;;6093570;23;92477;-71
2022/04/10 08:11:06;;;;;;;34.92;33.55;;;16.20;69.00;;;;;;6068621;23;92442;-72
2022/04/10 08:13:33;;;;;;;31.70;30.50;;;17.00;67.80;;;;;;6094619;23;93214;-71
2022/04/10 08:16:02;;;;;;;37.05;35.45;;;17.60;66.00;;;;;;6044863;23;91688;-71
2022/04/10 08:18:30;;;;;;;25.80;24.58;;;18.20;61.40;;;;;;6044774;23;92400;-71
2022/04/10 08:20:57;;;;;;;153.40;146.95;;;18.80;60.50;;;;;;6068716;23;92783;-71
2022/04/10 08:23:25;;;;;;;18.45;17.50;;;19.20;57.30;;;;;;6041743;23;98210;-71
2022/04/10 08:25:52;;;;;;;4.95;2.10;;;19.50;56.80;;;;;;6068415;23;97885;-71
2022/04/10 08:28:21;;;;;;;3.10;2.67;;;19.90;55.20;;;;;;6068355;23;102870;-72
2022/04/10 08:30:48;;;;;;;36.75;35.35;;;20.00;54.20;;;;;;6095496;23;93118;-72
2022/04/10 08:33:15;;;;;;;42.30;40.50;;;19.80;52.30;;;;;;6067889;23;95638;-72
2022/04/10 08:35:42;;;;;;;30.33;28.83;;;19.70;50.90;;;;;;6068248;23;95654;-72
2022/04/10 08:38:09;;;;;;;25.52;24.35;;;19.40;51.50;;;;;;6094675;23;92293;-72
2022/04/10 08:40:37;;;;;;;79.40;76.03;;;19.20;52.90;;;;;;6095113;23;91610;-72
2022/04/10 08:43:05;;;;;;;13.48;12.13;;;18.50;49.80;;;;;;6094078;23;101431;-72
2022/04/10 08:45:32;;;;;;;6.30;2.58;;;18.30;53.70;;;;;;6067534;23;95659;-71
2022/04/10 08:48:00;;;;;;;4.40;1.67;;;17.50;52.60;;;;;;6093750;23;94827;-71
2022/04/10 08:50:27;;;;;;;6.50;1.70;;;16.80;54.90;;;;;;6094962;23;92355;-71
2022/04/10 08:52:58;;;;;;;5.50;1.65;;;16.40;56.50;;;;;;6095127;23;92895;-71
2022/04/10 08:55:26;;;;;;;5.32;1.45;;;15.80;55.40;;;;;;6094923;23;92793;-71
2022/04/10 08:57:52;;;;;;;4.55;1.70;;;15.00;54.60;;;;;;6068640;23;97276;-71
2022/04/10 09:00:22;;;;;;;6.68;1.88;;;14.20;59.00;;;;;;6068670;23;92843;-71
2022/04/10 09:02:52;;;;;;;4.45;1.35;;;13.50;62.20;;;;;;6068291;23;95843;-71
2022/04/10 09:05:23;;;;;;;4.30;1.50;;;13.40;63.40;;;;;;6096253;23;92854;-71
2022/04/10 09:08:13;;;;;;;4.70;1.67;;;13.30;64.10;;;;;;6069988;23;92377;-71
2022/04/10 09:10:57;;;;;;;5.57;1.85;;;13.20;66.40;;;;;;6070395;23;92398;-71
2022/04/10 09:13:35;;;;;;;6.82;2.22;;;13.10;65.50;;;;;;6067908;23;98150;-70
2022/04/10 09:16:07;;;;;;;4.88;1.92;;;13.30;67.30;;;;;;6095924;23;95388;-71
2022/04/10 09:18:58;;;;;;;7.53;2.00;;;13.30;68.00;;;;;;6096300;23;92471;-71
2022/04/10 09:21:33;;;;;;;10.80;1.98;;;13.40;67.20;;;;;;6079713;23;92835;-70
2022/04/10 09:24:04;;;;;;;6.00;1.30;;;13.20;66.50;;;;;;6069925;23;95729;-71
2022/04/10 09:26:45;;;;;;;5.53;1.42;;;12.70;63.70;;;;;;6070258;23;92994;-71
2022/04/10 09:29:13;;;;;;;2.28;1.33;;;12.30;66.40;;;;;;6096701;23;93184;-71
2022/04/10 09:31:41;;;;;;;7.32;2.45;;;11.90;65.90;;;;;;6069824;23;98909;-71
2022/04/10 09:34:09;;;;;;;4.25;1.80;;;11.90;67.60;;;;;;6096164;23;93068;-71
2022/04/10 09:37:07;;;;;;;7.32;2.20;;;11.90;66.00;;;;;;6070208;23;94627;-70
2022/04/10 09:39:36;;;;;;;3.28;1.38;;;12.00;65.90;;;;;;6089337;23;94862;-70
2022/04/10 09:42:06;;;;;;;4.50;1.70;;;11.90;67.90;;;;;;6070398;23;92391;-70
2022/04/10 09:44:34;;;;;;;5.60;1.38;;;12.00;68.00;;;;;;6069938;23;93065;-70
2022/04/10 09:47:06;;;;;;;5.55;1.73;;;12.10;67.50;;;;;;6096014;23;92923;-70
2022/04/10 09:49:35;;;;;;;7.55;1.73;;;12.40;69.10;;;;;;6070053;23;92333;-71
2022/04/10 09:52:15;;;;;;;4.68;1.73;;;12.50;68.00;;;;;;6070608;23;92480;-71
2022/04/10 09:54:44;;;;;;;7.07;2.05;;;12.40;67.00;;;;;;6095781;23;93215;-70
2022/04/10 09:57:13;;;;;;;4.03;1.60;;;12.30;66.80;;;;;;6096332;23;92937;-70
2022/04/10 09:59:43;;;;;;;7.65;2.28;;;11.90;63.80;;;;;;6069344;23;92346;-70
2022/04/10 10:02:14;;;;;;;29.13;23.05;;;11.80;66.40;;;;;;6070320;23;92429;-70
2022/04/10 10:04:43;;;;;;;5.05;2.55;;;11.90;68.50;;;;;;6067435;23;98266;-70
2022/04/10 10:07:17;;;;;;;4.63;1.48;;;12.10;68.10;;;;;;6045005;23;109056;-70
2022/04/10 10:09:46;;;;;;;2.08;1.10;;;12.00;64.90;;;;;;6096022;23;92462;-70
2022/04/10 10:12:14;;;;;;;6.43;2.03;;;11.70;59.80;;;;;;6070645;23;92384;-70
2022/04/10 10:14:42;;;;;;;5.28;1.90;;;11.80;62.10;;;;;;6095405;23;93243;-70
2022/04/10 10:17:10;;;;;;;3.25;1.85;;;11.80;62.30;;;;;;6069215;23;95387;-71
2022/04/10 10:19:39;;;;;;;4.38;1.60;;;12.10;64.90;;;;;;6069734;23;94833;-71
2022/04/10 10:22:12;;;;;;;4.57;1.30;;;12.00;65.20;;;;;;6070019;23;91642;-71
2022/04/10 10:25:08;;;;;;;5.70;1.30;;;12.10;62.50;;;;;;6095684;23;93235;-71
2022/04/10 10:27:54;;;;;;;2.10;1.00;;;12.40;63.30;;;;;;6095602;23;92933;-71
2022/04/10 10:30:32;;;;;;;5.88;1.92;;;12.50;62.20;;;;;;6094733;23;94723;-71
2022/04/10 10:33:16;;;;;;;3.25;1.67;;;12.40;61.00;;;;;;6096096;23;92715;-71
2022/04/10 10:35:52;;;;;;;3.38;1.35;;;12.40;60.20;;;;;;6069512;23;94245;-71
2022/04/10 10:38:26;;;;;;;7.25;1.73;;;12.50;61.10;;;;;;6095874;23;92946;-70
2022/04/10 10:41:11;;;;;;;2.50;1.30;;;12.40;61.60;;;;;;6096154;23;92327;-70
2022/04/10 10:43:38;;;;;;;6.65;2.05;;;12.00;61.20;;;;;;6095845;23;92276;-71
2022/04/10 10:46:34;;;;;;;4.50;1.80;;;11.90;64.80;;;;;;6095691;23;93015;-71
2022/04/10 10:49:19;;;;;;;4.18;1.55;;;11.70;66.80;;;;;;6047601;23;92772;-71
2022/04/10 10:51:54;;;;;;;4.55;1.40;;;11.40;69.30;;;;;;6095811;23;92408;-70
2022/04/10 10:54:24;;;;;;;1.98;1.20;;;11.40;70.00;;;;;;6096023;23;92422;-71
2022/04/10 10:56:51;;;;;;;4.95;1.42;;;11.20;70.00;;;;;;6067423;23;98253;-71
2022/04/10 10:59:32;;;;;;;5.78;1.50;;;11.20;70.80;;;;;;6069388;23;97452;-71
2022/04/10 11:02:17;;;;;;;5.25;1.33;;;11.10;70.40;;;;;;6070021;23;92502;-70
2022/04/10 11:05:26;;;;;;;5.10;1.45;;;11.30;74.00;;;;;;6074429;23;92394;-70
2022/04/10 11:07:56;;;;;;;10.13;2.00;;;11.50;73.40;;;;;;6095573;23;93278;-71
2022/04/10 11:10:28;;;;;;;4.22;1.50;;;11.80;69.80;;;;;;6069817;23;92889;-70
2022/04/10 11:13:06;;;;;;;10.30;1.88;;;12.00;70.30;;;;;;6069453;23;92511;-70
2022/04/10 11:15:55;;;;;;;6.88;1.70;;;12.00;69.40;;;;;;6096074;23;91722;-70
2022/04/10 11:18:36;;;;;;;2.45;1.50;;;11.80;68.70;;;;;;6095840;23;93324;-70
2022/04/10 11:21:17;;;;;;;5.78;2.13;;;11.70;70.50;;;;;;6070761;23;92791;-70
2022/04/10 11:23:52;;;;;;;3.33;1.23;;;11.80;71.10;;;;;;6068174;23;94824;-70
2022/04/10 11:26:20;;;;;;;5.38;1.55;;;11.90;66.80;;;;;;6069472;23;94404;-70
2022/04/10 11:29:07;;;;;;;3.72;1.50;;;12.10;67.00;;;;;;6068913;23;93118;-70
2022/04/10 11:31:37;;;;;;;4.32;1.10;;;12.40;66.70;;;;;;6069425;23;95551;-70
2022/04/10 11:34:21;;;;;;;4.40;1.50;;;12.50;63.80;;;;;;6070178;23;92435;-70
2022/04/10 11:36:50;;;;;;;5.15;1.50;;;12.80;64.30;;;;;;6069743;23;92445;-71
2022/04/10 11:39:21;;;;;;;4.60;1.90;;;12.80;65.30;;;;;;6095585;23;93033;-71
2022/04/10 11:41:49;;;;;;;6.50;1.70;;;12.80;67.00;;;;;;6069595;23;95441;-71
2022/04/10 11:44:17;;;;;;;6.00;1.60;;;12.80;67.20;;;;;;6070177;23;92458;-71
2022/04/10 11:46:49;;;;;;;2.75;1.70;;;12.60;66.90;;;;;;6069627;23;92438;-70
2022/04/10 11:49:19;;;;;;;4.60;1.42;;;12.40;65.50;;;;;;6067941;23;98032;-71
2022/04/10 11:51:57;;;;;;;8.13;1.90;;;12.20;66.70;;;;;;6068637;23;96384;-71
2022/04/10 11:54:33;;;;;;;4.05;1.52;;;12.10;68.50;;;;;;6069616;23;92449;-70
2022/04/10 11:57:03;;;;;;;3.45;1.20;;;11.80;64.70;;;;;;6069303;23;92452;-70
2022/04/10 11:59:37;;;;;;;4.53;1.20;;;12.00;67.60;;;;;;6044731;23;101479;-70
2022/04/10 12:02:07;;;;;;;3.35;1.30;;;12.20;62.20;;;;;;6069355;23;95500;-70
2022/04/10 12:04:36;;;;;;;5.55;1.25;;;12.40;63.60;;;;;;6069406;23;92423;-70
2022/04/10 12:07:27;;;;;;;6.93;1.48;;;12.80;65.10;;;;;;6095803;23;91713;-70
2022/04/10 12:09:54;;;;;;;2.42;1.17;;;13.10;61.80;;;;;;6095197;23;93102;-71
2022/04/10 12:12:36;;;;;;;4.57;1.40;;;13.10;60.60;;;;;;6095356;23;92987;-71
2022/04/10 12:15:14;;;;;;;1.25;0.80;;;13.50;62.10;;;;;;6093853;23;94677;-71
2022/04/10 12:17:41;;;;;;;3.92;1.17;;;13.10;57.10;;;;;;6094970;23;92492;-71
2022/04/10 12:20:28;;;;;;;2.75;1.27;;;12.90;59.00;;;;;;6095219;23;93241;-71
2022/04/10 12:22:55;;;;;;;2.42;1.00;;;12.60;61.60;;;;;;6094831;23;92924;-71
2022/04/10 12:25:22;;;;;;;3.75;1.23;;;12.60;63.80;;;;;;6069006;23;92373;-71
2022/04/10 12:27:51;;;;;;;3.58;1.30;;;12.30;61.60;;;;;;6069277;23;92410;-71
2022/04/10 12:30:21;;;;;;;2.47;0.88;;;12.10;59.40;;;;;;6094716;23;93100;-70
2022/04/10 12:32:48;;;;;;;3.38;1.40;;;12.10;60.00;;;;;;6095379;23;92870;-71
2022/04/10 12:35:15;;;;;;;2.30;1.20;;;12.20;63.30;;;;;;6068902;23;92442;-71
2022/04/10 12:37:46;;;;;;;3.88;1.13;;;12.30;60.80;;;;;;6045245;23;93178;-71
2022/04/10 12:40:13;;;;;;;2.72;1.20;;;12.50;62.80;;;;;;6094902;23;95660;-71
2022/04/10 12:42:43;;;;;;;4.30;1.40;;;12.60;59.50;;;;;;6095870;23;109011;-71
2022/04/10 12:45:11;;;;;;;2.85;1.42;;;12.60;61.10;;;;;;6096525;23;92400;-71
2022/04/10 12:47:46;;;;;;;2.05;1.17;;;12.80;61.20;;;;;;6096922;23;92740;-71
2022/04/10 12:50:17;;;;;;;2.58;1.40;;;13.20;60.80;;;;;;6070522;23;93196;-71
2022/04/10 12:52:46;;;;;;;5.43;1.15;;;13.60;61.60;;;;;;6069912;23;95618;-71
2022/04/10 12:55:26;;;;;;;4.05;1.38;;;13.70;57.40;;;;;;6096536;23;92337;-71
2022/04/10 12:57:53;;;;;;;3.75;1.10;;;13.70;60.10;;;;;;6070624;23;92107;-71
2022/04/10 13:00:34;;;;;;;3.13;1.15;;;13.40;57.40;;;;;;6096231;23;93110;-70
2022/04/10 13:03:46;;;;;;;3.38;1.33;;;13.00;55.70;;;;;;6096067;23;92821;-71
2022/04/10 13:06:15;;;;;;;5.55;1.58;;;12.70;56.40;;;;;;5976327;23;94860;-71
2022/04/10 13:08:42;;;;;;;1.52;1.08;;;12.70;61.50;;;;;;5953740;23;92494;-70